Time;durP1;ratioP1;P1;durP2;ratioP2;P2;SDS_P1;SDS_P2;PMS_P1;PMS_P2;Temp;Humidity;BMP_temperature;BMP_pressure;BME280_temperature;BME280_humidity;BME280_pressure;Samples;Min_cycle;Max_cycle;Signal;HPM_P1;HPM_P2
2022/03/02 00:00:44;;;;;;;13.55;8.15;;;5.60;99.90;;;;;;5072218;28;20223;-48
2022/03/02 00:03:10;;;;;;;10.93;7.40;;;5.50;99.90;;;;;;5072680;28;20171;-48
2022/03/02 00:05:36;;;;;;;12.45;7.97;;;5.50;99.90;;;;;;5072022;28;20678;-48
2022/03/02 00:08:03;;;;;;;13.82;8.23;;;5.40;99.90;;;;;;5072320;28;20166;-47
2022/03/02 00:10:29;;;;;;;13.38;8.88;;;5.40;99.90;;;;;;5072278;28;20169;-47
2022/03/02 00:12:54;;;;;;;11.10;7.50;;;5.50;99.90;;;;;;5071719;28;20170;-47
2022/03/02 00:15:20;;;;;;;12.13;7.85;;;5.50;99.90;;;;;;5071987;28;20201;-47
2022/03/02 00:17:46;;;;;;;13.88;8.30;;;5.50;99.90;;;;;;5071880;28;20531;-47
2022/03/02 00:20:12;;;;;;;14.65;8.27;;;5.40;99.90;;;;;;5072192;28;20166;-48
2022/03/02 00:22:38;;;;;;;13.98;7.55;;;5.40;99.90;;;;;;5071951;28;20180;-48
2022/03/02 00:25:04;;;;;;;13.68;8.35;;;5.40;99.90;;;;;;5071893;28;20734;-48
2022/03/02 00:27:29;;;;;;;14.10;7.88;;;5.40;99.90;;;;;;5071903;28;20173;-48
2022/03/02 00:29:55;;;;;;;12.15;8.02;;;5.40;99.90;;;;;;5072077;28;20265;-48
2022/03/02 00:32:20;;;;;;;13.75;7.50;;;5.30;99.90;;;;;;5071845;28;20186;-48
2022/03/02 00:34:46;;;;;;;12.52;7.45;;;5.30;99.90;;;;;;5071821;28;20194;-48
2022/03/02 00:37:12;;;;;;;14.75;7.20;;;5.30;99.90;;;;;;5072024;28;20535;-48
2022/03/02 00:39:38;;;;;;;13.65;8.68;;;5.20;99.90;;;;;;5071757;28;20170;-48
2022/03/02 00:42:06;;;;;;;13.93;6.95;;;5.30;99.90;;;;;;5071729;28;20174;-50
2022/03/02 00:44:32;;;;;;;12.63;7.28;;;5.20;99.90;;;;;;5071896;28;20194;-48
2022/03/02 00:46:58;;;;;;;10.63;7.00;;;5.20;99.90;;;;;;5071665;28;20237;-48
2022/03/02 00:49:26;;;;;;;11.45;7.30;;;5.10;99.90;;;;;;5071731;28;20527;-48
2022/03/02 00:51:53;;;;;;;11.50;6.82;;;5.10;99.90;;;;;;5071970;28;20173;-48
2022/03/02 00:54:19;;;;;;;11.65;6.82;;;5.10;99.90;;;;;;5071743;28;20162;-47
2022/03/02 00:56:44;;;;;;;11.90;7.20;;;5.10;99.90;;;;;;5071616;28;20217;-47
2022/03/02 00:59:10;;;;;;;14.70;7.63;;;5.00;99.90;;;;;;5071926;28;20168;-48
2022/03/02 01:01:35;;;;;;;12.65;7.07;;;5.00;99.90;;;;;;5071523;28;20646;-48
2022/03/02 01:04:01;;;;;;;12.88;7.28;;;5.10;99.90;;;;;;5071274;28;20283;-48
2022/03/02 01:06:26;;;;;;;10.40;6.25;;;5.00;99.90;;;;;;5071502;28;20229;-48
2022/03/02 01:08:52;;;;;;;11.32;6.82;;;4.90;99.90;;;;;;5071469;28;20166;-48
2022/03/02 01:11:18;;;;;;;13.32;6.90;;;5.00;99.90;;;;;;5071488;28;20681;-48
2022/03/02 01:13:43;;;;;;;11.10;6.35;;;5.00;99.90;;;;;;5071441;28;20166;-47
2022/03/02 01:16:09;;;;;;;10.18;6.95;;;5.00;99.90;;;;;;5071920;28;20615;-48
2022/03/02 01:18:34;;;;;;;11.05;6.63;;;4.80;99.90;;;;;;5071364;28;20177;-48
2022/03/02 01:21:00;;;;;;;11.52;6.38;;;4.80;99.90;;;;;;5071374;28;20162;-47
2022/03/02 01:23:26;;;;;;;11.30;6.57;;;4.80;99.90;;;;;;5071375;28;20166;-48
2022/03/02 01:25:52;;;;;;;11.30;6.72;;;4.80;99.90;;;;;;5075253;28;20208;-47
2022/03/02 01:28:17;;;;;;;10.77;6.47;;;4.70;99.90;;;;;;5075082;28;20249;-48
2022/03/02 01:30:43;;;;;;;13.60;7.38;;;4.60;99.90;;;;;;5075167;28;20181;-48
2022/03/02 01:33:08;;;;;;;11.32;6.03;;;4.60;99.90;;;;;;5075319;28;20697;-48
2022/03/02 01:35:34;;;;;;;9.77;6.57;;;4.50;99.90;;;;;;5074994;28;20196;-48
2022/03/02 01:37:59;;;;;;;16.45;7.38;;;4.50;99.90;;;;;;5074826;28;20204;-48
2022/03/02 01:40:25;;;;;;;12.18;6.18;;;4.60;99.90;;;;;;5074840;28;20173;-48
2022/03/02 01:42:50;;;;;;;12.82;7.20;;;4.50;99.90;;;;;;5074783;28;20158;-48
2022/03/02 01:45:17;;;;;;;13.38;6.78;;;4.50;99.90;;;;;;5074704;28;20589;-48
2022/03/02 01:47:43;;;;;;;10.88;6.35;;;4.50;99.90;;;;;;5075036;28;20169;-49
2022/03/02 01:50:12;;;;;;;10.75;6.88;;;4.50;99.90;;;;;;5075008;28;20257;-48
2022/03/02 01:52:38;;;;;;;11.75;6.47;;;4.50;99.90;;;;;;5074645;28;20162;-48
2022/03/02 01:55:05;;;;;;;11.75;6.72;;;4.50;99.90;;;;;;5074613;28;20172;-48
2022/03/02 01:57:31;;;;;;;9.32;6.00;;;4.40;99.90;;;;;;5074366;28;20174;-48
2022/03/02 01:59:57;;;;;;;15.10;6.70;;;4.50;99.90;;;;;;5074555;28;20248;-48
2022/03/02 02:02:22;;;;;;;10.95;6.82;;;4.50;99.90;;;;;;5074376;28;20241;-48
2022/03/02 02:04:48;;;;;;;9.73;6.63;;;4.40;99.90;;;;;;5074204;28;20209;-48
2022/03/02 02:07:14;;;;;;;13.68;7.75;;;4.40;99.90;;;;;;5073947;28;20166;-48
2022/03/02 02:09:39;;;;;;;10.50;6.68;;;4.40;99.90;;;;;;5074711;28;20174;-48
2022/03/02 02:12:05;;;;;;;12.40;7.32;;;4.40;99.90;;;;;;5074219;28;20215;-48
2022/03/02 02:14:30;;;;;;;11.55;7.13;;;4.40;99.90;;;;;;5074101;28;20173;-48
2022/03/02 02:16:56;;;;;;;10.68;6.80;;;4.30;99.90;;;;;;5074128;28;20170;-48
2022/03/02 02:19:21;;;;;;;13.07;7.78;;;4.20;99.90;;;;;;5074355;28;20177;-48
2022/03/02 02:21:48;;;;;;;11.32;7.30;;;4.20;99.90;;;;;;5074041;28;20705;-48
2022/03/02 02:24:15;;;;;;;15.07;7.22;;;4.10;99.90;;;;;;5074003;28;20190;-48
2022/03/02 02:26:40;;;;;;;11.20;7.18;;;4.00;99.90;;;;;;5074330;28;20177;-48
2022/03/02 02:29:06;;;;;;;13.48;7.70;;;3.90;99.90;;;;;;5073926;28;20166;-48
2022/03/02 02:31:32;;;;;;;12.40;7.30;;;4.00;99.90;;;;;;5073865;28;20177;-48
2022/03/02 02:33:58;;;;;;;17.30;7.88;;;4.00;99.90;;;;;;5074150;28;20249;-48
2022/03/02 02:36:24;;;;;;;11.13;7.38;;;4.00;99.90;;;;;;5073948;28;20174;-48
2022/03/02 02:38:49;;;;;;;13.57;7.45;;;4.00;99.90;;;;;;5073833;28;20201;-48
2022/03/02 02:41:16;;;;;;;11.80;7.20;;;4.00;99.90;;;;;;5073767;28;20221;-48
2022/03/02 02:43:42;;;;;;;14.20;7.70;;;4.10;99.90;;;;;;5074206;28;20182;-48
2022/03/02 02:46:09;;;;;;;13.43;8.05;;;4.10;99.90;;;;;;5073796;28;20354;-48
2022/03/02 02:48:35;;;;;;;14.40;7.93;;;4.10;99.90;;;;;;5073622;28;20186;-48
2022/03/02 02:51:00;;;;;;;12.43;7.18;;;4.10;99.90;;;;;;5073540;28;20216;-48
2022/03/02 02:53:26;;;;;;;11.20;7.65;;;4.10;99.90;;;;;;5073453;28;20166;-48
2022/03/02 02:55:53;;;;;;;11.00;7.03;;;4.10;99.90;;;;;;5073450;28;20637;-48
2022/03/02 02:58:19;;;;;;;13.63;7.47;;;4.10;99.90;;;;;;5073644;28;20170;-48
2022/03/02 03:00:47;;;;;;;10.13;6.82;;;4.10;99.90;;;;;;5073325;28;20315;-48
2022/03/02 03:03:13;;;;;;;11.50;7.22;;;4.20;99.90;;;;;;5073674;28;20177;-48
2022/03/02 03:05:39;;;;;;;10.73;7.03;;;4.10;99.90;;;;;;5073428;28;20202;-48
2022/03/02 03:08:12;;;;;;;14.27;7.10;;;4.10;99.90;;;;;;5055314;28;20586;-48
2022/03/02 03:10:39;;;;;;;11.00;6.70;;;4.00;99.90;;;;;;5073053;28;20166;-48
2022/03/02 03:13:06;;;;;;;13.43;6.80;;;4.10;99.90;;;;;;5073143;28;20166;-48
2022/03/02 03:15:32;;;;;;;10.32;7.07;;;4.00;99.90;;;;;;5072994;28;20197;-48
2022/03/02 03:17:58;;;;;;;13.07;8.13;;;4.00;99.90;;;;;;5073206;28;20166;-47
2022/03/02 03:20:26;;;;;;;12.25;7.68;;;3.90;99.90;;;;;;5073199;28;20170;-48
2022/03/02 03:22:53;;;;;;;12.93;7.53;;;4.00;99.90;;;;;;5072843;28;20173;-48
2022/03/02 03:25:19;;;;;;;11.90;7.18;;;4.00;99.90;;;;;;5073183;28;20237;-48
2022/03/02 03:27:45;;;;;;;11.50;6.95;;;4.00;99.90;;;;;;5073011;28;20194;-48
2022/03/02 03:30:13;;;;;;;10.73;7.00;;;4.00;99.90;;;;;;5072956;28;20204;-48
2022/03/02 03:32:39;;;;;;;13.18;7.70;;;4.00;99.90;;;;;;5073033;28;20166;-48
2022/03/02 03:35:07;;;;;;;11.82;7.68;;;4.00;99.90;;;;;;5072892;28;20220;-49
2022/03/02 03:37:32;;;;;;;12.18;7.10;;;4.10;99.90;;;;;;5072885;28;20629;-48
2022/03/02 03:39:58;;;;;;;14.32;7.57;;;4.00;99.90;;;;;;5072433;28;20556;-48
2022/03/02 03:42:24;;;;;;;13.35;7.60;;;4.10;99.90;;;;;;5072535;28;20224;-49
2022/03/02 03:44:50;;;;;;;11.75;6.93;;;4.00;99.90;;;;;;5072447;28;20220;-48
2022/03/02 03:47:16;;;;;;;12.50;7.38;;;4.10;99.90;;;;;;5071884;28;20170;-48
2022/03/02 03:49:41;;;;;;;13.90;7.57;;;4.10;99.90;;;;;;5072697;28;20575;-47
2022/03/02 03:52:07;;;;;;;15.00;7.32;;;4.00;99.90;;;;;;5072353;28;20177;-48
2022/03/02 03:54:33;;;;;;;10.98;7.35;;;4.00;99.90;;;;;;5072256;28;20189;-48
2022/03/02 03:56:58;;;;;;;12.20;6.90;;;4.10;99.90;;;;;;5072274;28;20303;-48
2022/03/02 03:59:24;;;;;;;12.38;7.22;;;4.10;99.90;;;;;;5072534;28;20197;-48
2022/03/02 04:01:49;;;;;;;13.98;6.93;;;4.10;99.90;;;;;;5072419;28;20174;-48
2022/03/02 04:04:15;;;;;;;10.95;6.68;;;2.80;99.90;;;;;;5072142;28;20166;-48
2022/03/02 04:06:40;;;;;;;11.15;6.93;;;4.10;99.90;;;;;;5072501;28;20174;-48
2022/03/02 04:09:06;;;;;;;11.57;7.38;;;4.10;99.90;;;;;;5072078;28;20170;-48
2022/03/02 04:11:31;;;;;;;9.77;6.30;;;4.10;99.90;;;;;;5072105;28;20193;-48
2022/03/02 04:13:57;;;;;;;12.70;6.80;;;4.10;99.90;;;;;;5071929;28;20685;-48
2022/03/02 04:16:23;;;;;;;12.38;6.95;;;4.20;99.90;;;;;;5071945;28;20166;-48
2022/03/02 04:18:48;;;;;;;12.90;6.85;;;4.20;99.90;;;;;;5072125;28;20627;-47
2022/03/02 04:21:14;;;;;;;10.52;6.07;;;4.30;99.90;;;;;;5054184;28;20172;-47
2022/03/02 04:23:40;;;;;;;9.32;5.85;;;4.20;99.90;;;;;;5072205;28;20162;-47
2022/03/02 04:26:05;;;;;;;10.52;6.22;;;4.20;99.90;;;;;;5071944;28;20251;-47
2022/03/02 04:28:31;;;;;;;14.82;8.02;;;4.30;99.90;;;;;;5071837;28;20209;-48
2022/03/02 04:30:57;;;;;;;13.65;7.97;;;4.30;99.90;;;;;;5071874;28;20173;-47
2022/03/02 04:33:22;;;;;;;14.23;8.07;;;4.30;99.90;;;;;;5071792;28;20166;-47
2022/03/02 04:35:48;;;;;;;18.52;7.88;;;4.30;99.90;;;;;;5071894;28;20194;-47
2022/03/02 04:38:13;;;;;;;13.07;7.80;;;4.30;99.90;;;;;;5071821;28;20641;-47
2022/03/02 04:40:39;;;;;;;12.30;6.63;;;4.30;99.90;;;;;;5072079;28;20158;-48
2022/03/02 04:43:05;;;;;;;10.48;6.90;;;4.30;99.90;;;;;;5071719;28;20507;-48
2022/03/02 04:45:30;;;;;;;12.23;6.97;;;4.30;99.90;;;;;;5071600;28;20283;-48
2022/03/02 04:47:58;;;;;;;12.90;7.03;;;4.30;99.90;;;;;;5071819;28;20180;-48
2022/03/02 04:50:25;;;;;;;11.60;6.85;;;4.30;99.90;;;;;;5071620;28;20170;-48
2022/03/02 04:52:53;;;;;;;12.30;7.13;;;4.30;99.90;;;;;;5071715;28;20169;-48
2022/03/02 04:55:19;;;;;;;9.23;6.63;;;4.30;99.90;;;;;;5071697;28;20166;-48
2022/03/02 04:57:51;;;;;;;13.77;7.10;;;4.30;99.90;;;;;;5071616;28;20227;-47
2022/03/02 05:00:27;;;;;;;10.50;6.30;;;4.40;99.90;;;;;;5074659;28;20162;-47
2022/03/02 05:02:54;;;;;;;12.02;6.57;;;4.30;99.90;;;;;;5075860;28;20178;-48
2022/03/02 05:05:21;;;;;;;11.55;6.68;;;4.40;99.90;;;;;;5057541;28;20255;-48
2022/03/02 05:07:47;;;;;;;11.57;6.60;;;4.40;99.90;;;;;;5075801;28;20162;-47
2022/03/02 05:10:15;;;;;;;10.90;6.55;;;4.40;99.90;;;;;;5075399;28;20173;-47
2022/03/02 05:12:41;;;;;;;11.50;6.72;;;4.40;99.90;;;;;;5075659;28;20178;-48
2022/03/02 05:15:08;;;;;;;15.48;6.78;;;4.40;99.90;;;;;;5075563;28;20169;-48
2022/03/02 05:17:35;;;;;;;15.18;8.20;;;4.40;99.90;;;;;;5075268;28;20224;-48
2022/03/02 05:20:01;;;;;;;12.95;6.88;;;4.40;99.90;;;;;;5075196;28;20246;-48
2022/03/02 05:22:27;;;;;;;10.18;6.45;;;4.40;99.90;;;;;;5075336;28;20582;-47
2022/03/02 05:24:52;;;;;;;13.38;7.75;;;4.40;99.90;;;;;;5075025;28;20206;-48
2022/03/02 05:27:18;;;;;;;17.75;9.30;;;4.40;99.90;;;;;;5075010;28;20170;-47
2022/03/02 05:29:43;;;;;;;30.83;12.70;;;4.40;99.90;;;;;;5074960;28;20263;-48
2022/03/02 05:32:09;;;;;;;21.23;9.85;;;4.30;99.90;;;;;;5075317;28;20223;-47
2022/03/02 05:34:35;;;;;;;48.17;21.92;;;4.30;99.90;;;;;;5074911;28;20231;-48
2022/03/02 05:37:01;;;;;;;21.50;10.68;;;4.30;99.90;;;;;;5075176;28;20558;-48
2022/03/02 05:39:26;;;;;;;33.58;16.23;;;4.40;99.90;;;;;;5074881;28;20154;-48
2022/03/02 05:41:52;;;;;;;37.15;17.42;;;4.40;99.90;;;;;;5074801;28;20194;-48
2022/03/02 05:44:18;;;;;;;42.85;20.50;;;4.30;99.90;;;;;;5074643;28;20170;-48
2022/03/02 05:46:44;;;;;;;37.20;16.38;;;4.30;99.90;;;;;;5074554;28;20275;-48
2022/03/02 05:49:10;;;;;;;21.00;9.50;;;4.30;99.90;;;;;;5074959;28;20208;-48
2022/03/02 05:51:37;;;;;;;18.25;10.73;;;4.40;99.90;;;;;;5074489;28;20166;-48
2022/03/02 05:54:04;;;;;;;24.83;12.68;;;4.30;99.90;;;;;;5074610;28;20974;-48
2022/03/02 05:56:33;;;;;;;12.38;7.70;;;4.40;99.90;;;;;;5074743;28;20174;-48
2022/03/02 05:58:59;;;;;;;19.65;10.95;;;4.30;99.90;;;;;;5074508;28;20256;-48
2022/03/02 06:01:25;;;;;;;26.23;13.38;;;4.30;99.90;;;;;;5074727;28;20198;-48
2022/03/02 06:03:51;;;;;;;27.75;13.68;;;4.30;99.90;;;;;;5074494;28;20181;-48
2022/03/02 06:06:17;;;;;;;18.48;9.77;;;4.30;99.90;;;;;;5074448;28;20216;-48
2022/03/02 06:08:43;;;;;;;35.30;16.90;;;4.30;99.90;;;;;;5074600;28;20162;-48
2022/03/02 06:11:09;;;;;;;20.25;8.70;;;4.30;99.90;;;;;;5073855;28;20569;-48
2022/03/02 06:13:35;;;;;;;36.03;16.25;;;4.30;99.90;;;;;;5073869;28;20648;-48
2022/03/02 06:16:01;;;;;;;19.33;10.70;;;4.30;99.90;;;;;;5073714;28;20717;-48
2022/03/02 06:18:27;;;;;;;15.77;8.75;;;4.30;99.90;;;;;;5073896;28;20533;-48
2022/03/02 06:20:59;;;;;;;25.35;12.63;;;4.30;99.90;;;;;;5074119;28;20162;-48
2022/03/02 06:23:25;;;;;;;14.73;8.15;;;4.20;99.90;;;;;;5074269;28;20240;-48
2022/03/02 06:25:51;;;;;;;14.05;8.45;;;4.20;99.90;;;;;;5073952;28;20210;-48
2022/03/02 06:28:17;;;;;;;26.75;13.07;;;4.20;99.90;;;;;;5074007;28;20241;-48
2022/03/02 06:30:42;;;;;;;19.17;11.10;;;4.30;99.90;;;;;;5073894;28;20205;-48
2022/03/02 06:33:11;;;;;;;46.45;23.17;;;4.30;99.90;;;;;;5073022;28;20162;-48
2022/03/02 06:35:36;;;;;;;29.35;14.05;;;4.30;99.90;;;;;;5073636;28;20631;-48
2022/03/02 06:38:02;;;;;;;22.95;10.40;;;4.30;99.90;;;;;;5073669;28;21189;-48
2022/03/02 06:40:27;;;;;;;19.80;12.55;;;7.20;99.90;;;;;;5073723;28;20170;-48
2022/03/02 06:43:04;;;;;;;34.05;19.42;;;4.40;99.90;;;;;;5073634;28;20196;-49
2022/03/02 06:45:55;;;;;;;26.70;12.77;;;4.40;99.90;;;;;;5073327;28;20252;-48
2022/03/02 06:48:36;;;;;;;26.15;13.07;;;4.40;99.90;;;;;;5069271;28;20588;-48
2022/03/02 06:51:02;;;;;;;30.55;13.70;;;4.40;99.90;;;;;;5073698;28;20173;-48
2022/03/02 06:53:36;;;;;;;39.55;15.15;;;4.50;99.90;;;;;;5073712;28;20521;-48
2022/03/02 06:56:05;;;;;;;29.50;12.75;;;4.50;99.90;;;;;;5055397;28;20537;-48
2022/03/02 06:58:41;;;;;;;21.98;12.73;;;4.50;99.90;;;;;;5073326;28;20173;-48
2022/03/02 07:01:12;;;;;;;20.30;12.13;;;4.50;99.90;;;;;;5073304;28;20170;-48
2022/03/02 07:03:47;;;;;;;40.67;17.60;;;4.50;99.90;;;;;;5073840;28;20201;-48
2022/03/02 07:06:14;;;;;;;24.50;9.30;;;7.30;99.90;;;;;;5073434;28;20216;-48
2022/03/02 07:08:43;;;;;;;24.35;11.43;;;4.50;99.90;;;;;;5073335;28;20170;-48
2022/03/02 07:11:09;;;;;;;42.17;16.40;;;4.60;99.90;;;;;;5073349;28;20158;-48
2022/03/02 07:13:36;;;;;;;44.83;16.15;;;4.60;99.90;;;;;;5073131;28;20619;-48
2022/03/02 07:16:02;;;;;;;78.18;29.17;;;4.80;99.90;;;;;;5072957;28;20674;-49
2022/03/02 07:18:28;;;;;;;32.47;13.43;;;4.80;99.90;;;;;;5073238;28;20296;-48
2022/03/02 07:20:57;;;;;;;46.53;16.30;;;4.80;99.90;;;;;;5072841;28;20170;-49
2022/03/02 07:23:27;;;;;;;19.25;8.93;;;4.80;99.90;;;;;;5072618;28;20170;-48
2022/03/02 07:25:57;;;;;;;27.45;12.02;;;4.70;99.90;;;;;;5072711;28;20729;-49
2022/03/02 07:28:23;;;;;;;25.27;10.38;;;4.80;99.90;;;;;;5072836;28;20170;-48
2022/03/02 07:30:52;;;;;;;23.90;10.95;;;4.90;99.90;;;;;;5072774;28;20196;-48
2022/03/02 07:33:21;;;;;;;39.33;15.95;;;4.90;99.90;;;;;;5072705;28;20176;-49
2022/03/02 07:35:53;;;;;;;31.70;14.45;;;5.00;99.90;;;;;;5071876;28;20185;-48
2022/03/02 07:38:21;;;;;;;23.20;12.25;;;5.10;99.90;;;;;;5072149;28;20173;-48
2022/03/02 07:40:48;;;;;;;33.60;14.35;;;5.10;99.90;;;;;;5072523;28;20250;-48
2022/03/02 07:43:14;;;;;;;28.05;13.85;;;5.10;99.90;;;;;;5072786;28;20170;-48
2022/03/02 07:45:40;;;;;;;26.90;12.80;;;5.10;99.90;;;;;;5072703;28;20254;-48
2022/03/02 07:48:05;;;;;;;37.38;17.08;;;5.20;99.90;;;;;;5072483;28;20204;-48
2022/03/02 07:50:31;;;;;;;26.42;12.18;;;5.30;99.90;;;;;;5072424;28;20556;-48
2022/03/02 07:53:00;;;;;;;28.00;10.68;;;5.30;99.90;;;;;;5072388;28;20166;-48
2022/03/02 07:55:28;;;;;;;33.88;14.63;;;5.40;99.90;;;;;;5072387;28;20170;-48
2022/03/02 07:57:57;;;;;;;31.13;13.75;;;5.50;99.90;;;;;;5072525;28;20158;-48
2022/03/02 08:00:28;;;;;;;43.38;20.85;;;5.60;99.90;;;;;;5072363;28;20226;-48
2022/03/02 08:02:57;;;;;;;23.73;11.30;;;5.60;99.90;;;;;;5072528;28;20174;-48
2022/03/02 08:05:24;;;;;;;33.53;14.45;;;5.70;99.90;;;;;;5072138;28;20803;-49
2022/03/02 08:07:49;;;;;;;16.88;9.02;;;5.70;99.90;;;;;;5072207;28;20253;-49
2022/03/02 08:10:16;;;;;;;15.25;9.63;;;5.80;99.90;;;;;;5072448;28;20265;-48
2022/03/02 08:12:42;;;;;;;15.00;8.50;;;5.90;99.90;;;;;;5072617;28;20166;-48
2022/03/02 08:15:09;;;;;;;16.55;8.77;;;5.90;99.90;;;;;;5072710;28;20269;-48
2022/03/02 08:17:35;;;;;;;14.85;8.70;;;5.90;99.90;;;;;;5072039;28;20162;-46
2022/03/02 08:20:02;;;;;;;12.07;8.63;;;6.00;99.90;;;;;;5069997;28;20539;-45
2022/03/02 08:22:29;;;;;;;17.50;9.25;;;6.10;99.90;;;;;;5070757;28;20185;-47
2022/03/02 08:25:12;;;;;;;11.85;7.82;;;6.10;99.90;;;;;;5070437;28;20204;-47
2022/03/02 08:27:40;;;;;;;15.93;8.80;;;6.30;99.90;;;;;;5071005;28;20654;-47
2022/03/02 08:30:07;;;;;;;15.23;9.30;;;6.30;99.90;;;;;;5070529;28;20236;-50
2022/03/02 08:32:40;;;;;;;12.77;8.45;;;6.50;99.90;;;;;;5070467;28;20698;-46
2022/03/02 08:35:06;;;;;;;11.20;7.82;;;6.70;99.90;;;;;;5070820;28;20177;-47
2022/03/02 08:37:32;;;;;;;15.00;9.20;;;6.70;99.90;;;;;;5070542;28;20185;-46
2022/03/02 08:39:59;;;;;;;12.77;7.78;;;6.90;99.90;;;;;;5070386;28;20243;-48
2022/03/02 08:42:25;;;;;;;13.43;8.35;;;6.90;99.90;;;;;;5070442;28;20168;-44
2022/03/02 08:44:51;;;;;;;24.65;11.77;;;6.90;99.90;;;;;;5070051;28;20206;-44
2022/03/02 08:47:16;;;;;;;30.60;12.30;;;7.00;99.90;;;;;;5070454;28;20260;-44
2022/03/02 08:49:42;;;;;;;17.65;9.30;;;7.00;99.90;;;;;;5070621;28;20236;-46
2022/03/02 08:52:09;;;;;;;12.43;7.90;;;7.10;99.90;;;;;;5070782;28;20174;-46
2022/03/02 08:54:42;;;;;;;15.15;8.85;;;7.20;99.90;;;;;;5070545;28;20215;-50
2022/03/02 08:57:09;;;;;;;11.35;7.13;;;7.40;99.90;;;;;;5070656;28;20162;-52
2022/03/02 08:59:36;;;;;;;14.77;8.32;;;7.50;99.90;;;;;;5052474;28;20170;-45
2022/03/02 09:02:06;;;;;;;12.52;7.97;;;7.70;99.90;;;;;;5052278;28;20192;-52
2022/03/02 09:04:35;;;;;;;11.48;7.97;;;7.60;99.90;;;;;;5070245;28;20166;-48
2022/03/02 09:07:03;;;;;;;14.02;7.63;;;7.50;99.90;;;;;;5070552;28;20186;-47
2022/03/02 09:09:29;;;;;;;11.65;7.90;;;7.70;99.90;;;;;;5070272;28;20209;-47
2022/03/02 09:11:55;;;;;;;12.25;8.18;;;7.80;99.90;;;;;;5070117;28;20166;-46
2022/03/02 09:14:22;;;;;;;13.48;8.25;;;7.90;99.90;;;;;;5070441;28;20546;-46
2022/03/02 09:16:48;;;;;;;11.48;7.18;;;8.00;99.90;;;;;;5070327;28;20217;-46
2022/03/02 09:19:14;;;;;;;12.70;7.47;;;8.10;99.90;;;;;;5070299;28;20174;-48
2022/03/02 09:21:41;;;;;;;11.90;7.65;;;8.10;99.90;;;;;;5070188;28;20627;-48
2022/03/02 09:24:09;;;;;;;11.65;8.05;;;8.20;99.90;;;;;;5069819;28;20241;-46
2022/03/02 09:26:36;;;;;;;12.68;7.93;;;8.30;99.90;;;;;;5069906;28;20202;-47
2022/03/02 09:29:05;;;;;;;11.25;7.65;;;8.20;99.90;;;;;;5069665;28;20617;-46
2022/03/02 09:31:34;;;;;;;10.93;7.40;;;8.30;99.90;;;;;;5070213;28;20174;-48
2022/03/02 09:34:05;;;;;;;12.60;7.53;;;8.30;99.90;;;;;;5069801;28;20162;-44
2022/03/02 09:36:36;;;;;;;12.35;8.00;;;8.40;99.90;;;;;;5070002;28;20170;-45
2022/03/02 09:39:07;;;;;;;9.32;7.57;;;8.60;99.90;;;;;;5070209;28;20178;-47
2022/03/02 09:41:41;;;;;;;9.48;6.53;;;8.70;98.20;;;;;;5069902;28;20521;-47
2022/03/02 09:44:10;;;;;;;9.23;6.72;;;8.70;98.50;;;;;;5069909;28;20304;-47
2022/03/02 09:46:38;;;;;;;10.20;6.68;;;8.80;96.90;;;;;;5073038;28;20636;-47
2022/03/02 09:49:12;;;;;;;12.98;7.65;;;8.80;97.30;;;;;;5073454;28;20514;-46
2022/03/02 09:51:39;;;;;;;9.02;6.65;;;8.70;97.50;;;;;;5073774;28;20166;-46
2022/03/02 09:54:05;;;;;;;11.10;6.35;;;8.90;97.30;;;;;;5073223;28;20658;-47
2022/03/02 09:56:32;;;;;;;11.07;7.65;;;8.90;96.50;;;;;;5073260;28;20255;-47
2022/03/02 09:59:00;;;;;;;12.95;7.75;;;9.10;95.80;;;;;;5073166;28;20162;-47
2022/03/02 10:01:27;;;;;;;11.10;6.90;;;9.20;96.20;;;;;;5073172;28;20170;-46
2022/03/02 10:03:54;;;;;;;9.27;6.18;;;9.30;95.20;;;;;;5073055;28;20200;-47
2022/03/02 10:06:21;;;;;;;11.60;7.15;;;9.20;94.00;;;;;;5072960;28;20247;-46
2022/03/02 10:08:49;;;;;;;11.45;6.63;;;9.40;94.70;;;;;;5073130;28;20760;-48
2022/03/02 10:11:18;;;;;;;8.55;7.18;;;9.30;93.00;;;;;;5073060;28;20178;-48
2022/03/02 10:13:44;;;;;;;10.38;7.32;;;9.30;92.60;;;;;;5073191;28;20165;-48
2022/03/02 10:16:19;;;;;;;10.30;6.60;;;9.50;93.50;;;;;;5073423;28;20171;-50
2022/03/02 10:18:54;;;;;;;11.55;6.78;;;9.50;91.60;;;;;;5072969;28;20192;-48
2022/03/02 10:21:31;;;;;;;11.27;6.65;;;9.60;92.00;;;;;;5073029;28;20227;-48
2022/03/02 10:23:59;;;;;;;12.45;7.97;;;9.70;91.70;;;;;;5072769;28;20185;-48
2022/03/02 10:26:28;;;;;;;13.10;7.43;;;9.60;90.30;;;;;;5073157;28;20220;-48
2022/03/02 10:29:23;;;;;;;14.85;7.88;;;9.70;90.00;;;;;;5072911;28;20165;-49
2022/03/02 10:32:05;;;;;;;20.10;11.55;;;9.70;87.40;;;;;;5073021;28;20576;-48
2022/03/02 10:34:34;;;;;;;11.25;7.25;;;9.80;86.20;;;;;;5072757;28;20253;-48
2022/03/02 10:37:08;;;;;;;12.15;8.10;;;9.90;88.00;;;;;;5073025;28;20205;-49
2022/03/02 10:39:49;;;;;;;16.83;8.95;;;9.80;86.70;;;;;;5054551;28;20161;-49
2022/03/02 10:42:28;;;;;;;9.43;7.32;;;9.70;86.60;;;;;;5072917;28;20177;-49
2022/03/02 10:45:12;;;;;;;21.52;12.30;;;9.90;85.40;;;;;;5072562;28;20221;-49
2022/03/02 10:48:08;;;;;;;13.18;8.52;;;10.30;86.40;;;;;;5073025;28;20564;-50
2022/03/02 10:50:35;;;;;;;16.90;9.50;;;10.20;85.10;;;;;;5051328;28;20193;-49
2022/03/02 10:53:04;;;;;;;12.15;7.85;;;10.40;85.60;;;;;;5072393;28;20580;-49
2022/03/02 10:55:31;;;;;;;19.52;8.73;;;10.50;85.60;;;;;;5072293;28;20181;-49
2022/03/02 10:57:59;;;;;;;12.20;7.68;;;10.70;87.00;;;;;;5072297;28;20188;-49
2022/03/02 11:00:25;;;;;;;12.77;8.35;;;10.70;83.90;;;;;;5072261;28;20198;-49
2022/03/02 11:02:57;;;;;;;29.80;17.42;;;10.70;80.80;;;;;;5072418;28;20535;-49
2022/03/02 11:05:24;;;;;;;24.50;12.52;;;10.70;82.20;;;;;;5072065;28;20196;-49
2022/03/02 11:07:50;;;;;;;36.72;24.85;;;10.70;81.10;;;;;;5071886;28;20180;-49
2022/03/02 11:10:20;;;;;;;13.80;9.23;;;10.60;79.50;;;;;;5072019;28;20530;-49
2022/03/02 11:12:47;;;;;;;10.05;6.55;;;10.70;79.50;;;;;;5072007;28;20166;-49
2022/03/02 11:15:15;;;;;;;11.05;7.47;;;10.90;80.10;;;;;;5071998;28;20185;-49
2022/03/02 11:17:59;;;;;;;15.05;9.98;;;11.00;79.10;;;;;;5071968;28;20235;-49
2022/03/02 11:20:28;;;;;;;24.02;14.75;;;11.00;76.80;;;;;;5071908;28;20155;-49
2022/03/02 11:23:00;;;;;;;9.38;7.40;;;11.10;75.70;;;;;;5071513;28;20241;-48
2022/03/02 11:25:46;;;;;;;33.25;22.63;;;11.20;75.40;;;;;;5071914;28;20213;-49
2022/03/02 11:28:18;;;;;;;38.95;26.48;;;11.30;75.80;;;;;;5071966;28;20178;-49
2022/03/02 11:30:57;;;;;;;14.95;9.98;;;11.20;76.60;;;;;;5071546;28;20166;-49
2022/03/02 11:33:28;;;;;;;28.83;19.60;;;11.30;74.80;;;;;;5071505;28;20661;-49
2022/03/02 11:35:59;;;;;;;45.63;31.02;;;11.20;73.50;;;;;;5071712;28;20528;-49
2022/03/02 11:38:30;;;;;;;39.15;27.08;;;11.20;73.50;;;;;;5071598;28;20281;-50
2022/03/02 11:40:56;;;;;;;14.15;8.95;;;11.30;73.20;;;;;;5071337;28;20518;-49
2022/03/02 11:43:28;;;;;;;11.30;7.30;;;11.30;73.50;;;;;;5071246;28;20185;-49
2022/03/02 11:46:08;;;;;;;22.30;16.67;;;11.20;73.20;;;;;;5071108;28;20233;-50
2022/03/02 11:48:40;;;;;;;40.35;25.90;;;11.20;70.90;;;;;;5071078;28;20166;-49
2022/03/02 11:51:15;;;;;;;19.98;14.95;;;11.30;71.50;;;;;;5070782;28;20178;-49
2022/03/02 11:53:54;;;;;;;17.98;14.25;;;11.40;70.40;;;;;;5071773;28;20170;-49
2022/03/02 11:56:25;;;;;;;26.00;17.30;;;11.30;71.50;;;;;;5071243;28;20162;-49
2022/03/02 11:59:10;;;;;;;11.82;8.52;;;11.30;70.30;;;;;;5071433;28;20582;-50
2022/03/02 12:01:43;;;;;;;32.10;22.45;;;11.40;70.20;;;;;;5071167;28;20241;-49
2022/03/02 12:04:10;;;;;;;24.35;15.95;;;11.40;68.60;;;;;;5071584;28;20193;-48
2022/03/02 12:06:43;;;;;;;13.93;11.13;;;11.50;70.00;;;;;;5071046;28;20197;-49
2022/03/02 12:09:09;;;;;;;33.47;22.80;;;11.50;69.60;;;;;;5070941;28;20184;-49
2022/03/02 12:11:38;;;;;;;15.85;11.90;;;11.50;69.90;;;;;;5070854;28;20224;-48
2022/03/02 12:14:09;;;;;;;15.35;10.55;;;11.70;68.90;;;;;;5070701;28;20706;-49
2022/03/02 12:16:46;;;;;;;21.02;17.40;;;11.70;68.70;;;;;;5071092;28;20209;-49
2022/03/02 12:19:27;;;;;;;9.85;6.63;;;11.70;69.20;;;;;;5071099;28;20162;-49
2022/03/02 12:22:01;;;;;;;23.33;14.70;;;11.70;68.30;;;;;;5070013;28;20649;-49
2022/03/02 12:24:32;;;;;;;11.02;6.35;;;11.80;67.70;;;;;;5070621;28;20597;-49
2022/03/02 12:27:08;;;;;;;11.77;7.43;;;11.80;68.90;;;;;;5070643;28;20247;-49
2022/03/02 12:29:36;;;;;;;15.02;11.48;;;12.00;69.90;;;;;;5070585;28;20261;-50
2022/03/02 12:32:11;;;;;;;9.43;8.27;;;12.20;69.80;;;;;;5070245;28;20673;-49
2022/03/02 12:34:39;;;;;;;10.35;7.40;;;12.20;69.00;;;;;;5070532;28;20244;-49
2022/03/02 12:37:06;;;;;;;13.07;8.50;;;12.10;69.60;;;;;;5070446;28;20166;-49
2022/03/02 12:39:32;;;;;;;7.10;5.90;;;12.10;69.40;;;;;;5070594;28;20230;-49
2022/03/02 12:41:58;;;;;;;12.77;7.88;;;12.00;68.00;;;;;;5070086;28;20181;-49
2022/03/02 12:44:26;;;;;;;6.10;5.45;;;12.00;68.30;;;;;;5070422;28;20197;-50
2022/03/02 12:46:56;;;;;;;8.00;7.13;;;12.20;67.60;;;;;;5070161;28;20228;-50